Time;durP1;ratioP1;P1;durP2;ratioP2;P2;SDS_P1;SDS_P2;PMS_P1;PMS_P2;Temp;Humidity;BMP_temperature;BMP_pressure;BME280_temperature;BME280_humidity;BME280_pressure;Samples;Min_cycle;Max_cycle;Signal;HPM_P1;HPM_P2
2021/03/28 00:04:53;;;;;;;10.75;2.65;;;;;;;6.99;66.52;101632.50;20956414;28;20091;-72
2021/03/28 00:15:13;;;;;;;14.55;3.70;;;;;;;6.96;67.00;101637.78;20912237;28;20053;-71
2021/03/28 00:25:32;;;;;;;13.15;3.38;;;;;;;6.99;67.42;101632.50;20912617;28;20049;-72
2021/03/28 00:35:57;;;;;;;14.85;5.25;;;;;;;6.98;67.52;101633.38;20910732;28;20536;-72
2021/03/28 00:45:58;;;;;;;11.73;4.68;;;;;;;6.91;66.97;101624.00;20904722;28;20492;-72
2021/03/28 00:56:11;;;;;;;8.05;2.75;;;;;;;6.87;68.28;101626.66;20910514;28;20052;-71
2021/03/28 01:06:17;;;;;;;11.55;3.10;;;;;;;6.89;68.10;101618.81;20891042;28;20554;-71
2021/03/28 01:16:34;;;;;;;10.48;2.70;;;;;;;6.82;67.79;101612.00;20907896;28;20054;-72
2021/03/28 01:26:41;;;;;;;12.77;2.90;;;;;;;6.79;67.92;101607.72;20908044;28;20045;-72
2021/03/28 01:36:47;;;;;;;12.57;3.00;;;;;;;6.82;66.94;101610.25;20906037;28;20048;-72
2021/03/28 01:47:06;;;;;;;12.07;3.08;;;;;;;6.84;65.28;101615.44;20906350;28;20045;-72
2021/03/28 01:57:57;;;;;;;9.60;2.53;;;;;;;6.78;66.87;101612.97;20907462;28;20049;-71
2021/03/28 02:08:13;;;;;;;9.75;2.60;;;;;;;6.89;65.59;101605.81;20903877;28;20049;-72
2021/03/28 02:18:17;;;;;;;9.57;2.60;;;;;;;6.98;65.23;101602.16;20904514;28;20092;-72
2021/03/28 02:28:31;;;;;;;9.38;2.78;;;;;;;6.82;66.30;101596.38;20904801;28;20041;-72
2021/03/28 02:38:58;;;;;;;11.00;2.97;;;;;;;6.88;65.59;101604.94;20903512;28;20053;-72
2021/03/28 02:49:17;;;;;;;9.80;2.60;;;;;;;6.82;67.26;101618.06;20902937;28;20048;-72
2021/03/28 02:59:36;;;;;;;11.27;3.05;;;;;;;6.83;66.40;101625.00;20901936;28;20508;-72
2021/03/28 03:09:54;;;;;;;11.88;2.58;;;;;;;6.83;66.89;101618.94;20902666;28;20045;-73
2021/03/28 03:20:05;;;;;;;13.00;3.10;;;;;;;6.77;67.54;101614.69;20894766;28;20087;-72
2021/03/28 03:30:20;;;;;;;10.90;2.97;;;;;;;6.72;67.90;101626.94;20916693;28;20053;-73
2021/03/28 03:40:36;;;;;;;8.10;2.80;;;;;;;6.66;68.32;101627.03;20916350;28;20053;-71
2021/03/28 03:51:19;;;;;;;8.68;2.40;;;;;;;6.37;69.42;101622.38;20915388;28;20378;-71
2021/03/28 04:01:27;;;;;;;11.15;2.72;;;;;;;6.00;70.06;101619.53;20771638;28;20052;-71
2021/03/28 04:11:54;;;;;;;8.82;2.65;;;;;;;5.76;70.91;101619.88;20912950;28;20049;-72
2021/03/28 04:22:16;;;;;;;11.93;2.97;;;;;;;5.62;70.75;101628.75;20912102;28;20536;-71
2021/03/28 04:32:40;;;;;;;10.40;2.80;;;;;;;5.48;71.70;101634.16;20910329;28;20056;-71
2021/03/28 04:43:20;;;;;;;12.43;3.53;;;;;;;5.38;71.18;101645.53;20903943;28;20048;-72
2021/03/28 04:53:39;;;;;;;12.52;3.33;;;;;;;5.27;71.39;101650.84;20926526;28;20489;-72
2021/03/28 05:03:59;;;;;;;10.45;3.42;;;;;;;5.37;70.48;101677.56;20935190;28;20048;-71
2021/03/28 05:14:25;;;;;;;8.95;3.65;;;;;;;5.21;71.55;101665.63;20907513;28;20103;-72
2021/03/28 05:25:13;;;;;;;14.00;3.43;;;;;;;5.07;71.60;101676.19;20922120;28;20057;-72
2021/03/28 05:35:36;;;;;;;11.05;3.60;;;;;;;5.02;72.44;101670.19;20830899;28;20045;-72
2021/03/28 05:46:06;;;;;;;12.48;3.90;;;;;;;5.05;72.23;101675.34;20903318;28;20091;-72
2021/03/28 05:56:26;;;;;;;9.43;3.53;;;;;;;5.16;72.45;101669.16;20902867;28;20036;-72
2021/03/28 06:06:49;;;;;;;10.80;3.67;;;;;;;5.39;70.56;101691.38;20902074;28;20053;-72
2021/03/28 06:17:07;;;;;;;13.10;3.72;;;;;;;5.52;70.48;101716.31;20900555;28;20045;-71
2021/03/28 06:27:26;;;;;;;9.60;3.47;;;;;;;5.86;68.83;101733.19;20900593;28;20041;-70
2021/03/28 06:37:33;;;;;;;9.95;3.72;;;;;;;6.23;67.68;101730.09;20980644;22;20600;-72
2021/03/28 06:47:49;;;;;;;9.52;3.15;;;;;;;6.51;66.98;101731.38;20905971;28;20496;-72
2021/03/28 06:58:11;;;;;;;10.73;3.55;;;;;;;6.76;65.23;101747.41;20919170;28;20052;-72
2021/03/28 07:08:34;;;;;;;10.55;3.72;;;;;;;6.93;65.06;101760.16;20917843;28;20056;-71
2021/03/28 07:18:51;;;;;;;12.98;4.15;;;;;;;6.96;64.73;101773.97;20917762;28;20071;-71
2021/03/28 07:29:23;;;;;;;11.20;3.63;;;;;;;6.69;65.38;101775.31;20916339;28;20048;-72
2021/03/28 07:40:05;;;;;;;10.68;3.42;;;;;;;6.69;65.27;101775.31;20918366;28;20045;-72
2021/03/28 07:50:40;;;;;;;13.82;3.20;;;;;;;7.14;64.67;101770.19;20916983;28;20648;-72
2021/03/28 08:01:16;;;;;;;9.32;2.85;;;;;;;7.67;62.86;101803.88;20912718;28;20041;-72
2021/03/28 08:11:23;;;;;;;9.55;2.97;;;;;;;8.05;60.06;101790.06;20826829;28;20094;-72
2021/03/28 08:21:40;;;;;;;8.88;3.10;;;;;;;8.46;58.55;101796.16;20913326;28;20605;-72
2021/03/28 08:32:08;;;;;;;10.05;3.17;;;;;;;8.86;56.85;101804.72;20890264;28;20046;-72
2021/03/28 08:42:32;;;;;;;12.80;3.00;;;;;;;9.27;55.41;101781.91;20841815;28;20098;-72
2021/03/28 08:52:57;;;;;;;7.82;3.03;;;;;;;9.63;55.04;101785.28;20915739;28;20053;-71
2021/03/28 09:03:37;;;;;;;11.40;2.75;;;;;;;10.08;53.12;101789.19;20922104;28;20131;-71
2021/03/28 09:13:46;;;;;;;10.85;3.13;;;;;;;10.54;52.62;101772.09;20888440;28;20052;-71
2021/03/28 09:24:06;;;;;;;12.48;2.95;;;;;;;10.86;52.90;101758.81;20916035;28;20045;-71
2021/03/28 09:34:37;;;;;;;13.60;3.05;;;;;;;11.20;51.42;101758.50;20903936;28;20044;-70
2021/03/28 09:44:53;;;;;;;11.02;3.05;;;;;;;11.62;52.01;101750.00;20916739;28;20120;-70
2021/03/28 09:55:13;;;;;;;9.75;2.75;;;;;;;11.83;50.81;101755.34;20912864;28;20416;-70
2021/03/28 10:05:23;;;;;;;10.45;2.10;;;;;;;11.68;48.54;101749.78;20925228;28;20044;-72
2021/03/28 10:15:26;;;;;;;9.30;2.10;;;;;;;11.84;48.58;101737.81;20914270;28;20083;-71
2021/03/28 10:25:36;;;;;;;6.97;1.95;;;;;;;12.46;47.21;101719.59;20916020;28;20044;-73
2021/03/28 10:35:53;;;;;;;7.50;2.35;;;;;;;12.79;45.52;101712.94;20924045;28;20047;-73
2021/03/28 10:46:25;;;;;;;8.90;2.60;;;;;;;12.79;45.76;101701.56;20894141;28;20131;-73
2021/03/28 10:56:57;;;;;;;11.25;2.92;;;;;;;12.76;45.99;101702.53;20914927;28;20408;-73
2021/03/28 11:07:29;;;;;;;12.20;2.65;;;;;;;12.72;45.86;101700.97;20904673;28;20072;-71
2021/03/28 11:17:58;;;;;;;6.72;2.33;;;;;;;12.88;46.89;101685.41;20907489;28;20053;-71
2021/03/28 11:28:02;;;;;;;7.07;1.98;;;;;;;12.91;44.43;101668.63;20921438;28;20077;-71
2021/03/28 11:38:18;;;;;;;8.65;2.10;;;;;;;13.14;43.58;101650.97;20914611;28;20049;-70
2021/03/28 11:48:35;;;;;;;8.25;2.03;;;;;;;13.08;44.07;101655.63;20919684;28;20468;-72
2021/03/28 11:58:39;;;;;;;8.07;2.30;;;;;;;13.36;42.62;101650.03;20916687;28;20052;-72
2021/03/28 12:08:46;;;;;;;8.45;2.30;;;;;;;13.61;40.92;101625.09;20948646;28;20041;-72
2021/03/28 12:18:53;;;;;;;8.02;2.33;;;;;;;13.64;41.56;101611.81;20941802;28;20126;-72
2021/03/28 12:29:14;;;;;;;7.18;1.65;;;;;;;13.46;41.72;101604.78;20942493;28;20086;-73
2021/03/28 12:39:21;;;;;;;6.50;1.75;;;;;;;13.63;40.79;101594.31;20916489;28;20052;-73
2021/03/28 12:49:42;;;;;;;8.25;2.10;;;;;;;13.99;41.14;101577.66;20929418;28;20036;-73
2021/03/28 12:59:43;;;;;;;9.57;2.25;;;;;;;13.92;40.11;101571.00;20939883;28;20049;-72
2021/03/28 13:09:48;;;;;;;8.10;1.60;;;;;;;13.83;40.59;101550.41;20929024;28;20071;-71
2021/03/28 13:19:53;;;;;;;8.93;1.90;;;;;;;14.29;39.54;101539.25;20942712;28;20044;-71
2021/03/28 13:29:55;;;;;;;;;;;;;;;14.31;41.44;101518.97;20942566;28;20045;-71
2021/03/28 13:40:22;;;;;;;7.18;2.20;;;;;;;14.45;39.13;101528.81;20938132;28;19974;-71
2021/03/28 13:51:17;;;;;;;8.75;1.80;;;;;;;14.23;39.43;101518.50;20909876;28;20044;-71
2021/03/28 14:01:33;;;;;;;9.60;2.20;;;;;;;14.47;40.05;101513.78;20928784;28;20107;-71
2021/03/28 14:11:40;;;;;;;6.38;1.52;;;;;;;14.71;38.92;101517.75;20945438;28;20044;-71
2021/03/28 14:21:42;;;;;;;7.45;1.83;;;;;;;15.08;38.96;101508.72;20917511;28;20488;-71
2021/03/28 14:31:46;;;;;;;10.90;2.35;;;;;;;14.91;38.79;101511.41;20902876;28;20041;-72
2021/03/28 14:42:02;;;;;;;8.00;2.20;;;;;;;15.16;38.53;101497.72;20913713;28;20584;-72
2021/03/28 14:52:42;;;;;;;8.02;2.08;;;;;;;15.33;38.23;101519.59;20907410;28;20106;-71
2021/03/28 15:03:07;;;;;;;8.02;1.70;;;;;;;15.14;36.43;101497.78;20860455;28;20500;-69
2021/03/28 15:13:15;;;;;;;7.60;2.20;;;;;;;15.35;36.89;101499.25;20836918;28;20402;-69
2021/03/28 15:23:23;;;;;;;7.03;2.50;;;;;;;15.50;37.78;101501.94;20849000;28;20060;-70
2021/03/28 15:33:36;;;;;;;6.13;1.73;;;;;;;15.39;37.13;101503.41;20797097;28;20117;-69
2021/03/28 15:43:58;;;;;;;7.07;2.00;;;;;;;15.01;36.85;101501.19;20784018;28;20050;-69
2021/03/28 15:54:21;;;;;;;7.90;1.85;;;;;;;15.13;37.21;101498.75;20767162;28;20143;-70
2021/03/28 16:04:42;;;;;;;6.30;1.30;;;;;;;15.14;37.62;101492.53;20750295;28;20096;-69
2021/03/28 16:14:43;;;;;;;8.07;1.80;;;;;;;14.90;38.31;101491.25;20745319;28;20038;-70
2021/03/28 16:25:15;;;;;;;7.40;1.85;;;;;;;14.81;38.93;101491.75;20770778;28;20050;-70
2021/03/28 16:35:32;;;;;;;8.23;2.20;;;;;;;14.57;39.24;101490.44;20762206;28;20540;-70
2021/03/28 16:45:43;;;;;;;6.07;1.73;;;;;;;14.33;40.18;101496.03;20760385;28;20046;-70
2021/03/28 16:55:51;;;;;;;7.25;1.65;;;;;;;14.27;40.74;101500.78;20754585;28;20050;-69
2021/03/28 17:06:00;;;;;;;9.35;2.00;;;;;;;14.14;40.81;101504.03;20758451;28;20046;-70
2021/03/28 17:16:15;;;;;;;8.80;2.42;;;;;;;13.79;42.79;101507.59;20830386;28;20493;-69
2021/03/28 17:26:38;;;;;;;10.60;2.43;;;;;;;13.59;42.48;101518.25;20815050;28;20065;-70
2021/03/28 17:36:49;;;;;;;9.60;2.95;;;;;;;13.30;43.36;101527.56;20823605;28;20042;-69
2021/03/28 17:47:06;;;;;;;9.30;2.78;;;;;;;13.03;44.40;101534.06;20837960;28;20094;-70
2021/03/28 17:57:25;;;;;;;6.97;2.13;;;;;;;12.73;45.49;101534.53;20836599;28;20037;-70
2021/03/28 18:07:31;;;;;;;10.13;2.80;;;;;;;12.35;46.58;101524.88;20834694;28;20481;-70
2021/03/28 18:17:33;;;;;;;9.07;3.75;;;;;;;12.08;47.77;101523.44;20820089;28;20053;-69
2021/03/28 18:27:36;;;;;;;7.00;3.17;;;;;;;11.96;47.11;101540.56;20829928;28;20045;-69
2021/03/28 18:37:48;;;;;;;9.27;3.60;;;;;;;11.84;47.53;101546.28;20808369;28;20033;-69
2021/03/28 18:47:49;;;;;;;9.55;3.53;;;;;;;11.63;48.01;101557.66;20832184;28;20557;-70
2021/03/28 18:57:54;;;;;;;9.18;2.90;;;;;;;11.47;47.66;101571.38;20843142;28;20131;-69
2021/03/28 19:07:56;;;;;;;9.57;3.27;;;;;;;11.29;49.11;101569.44;20851463;28;20056;-69
2021/03/28 19:18:14;;;;;;;12.38;5.43;;;;;;;11.24;48.93;101573.16;20860120;28;20052;-69
2021/03/28 19:28:28;;;;;;;9.13;3.05;;;;;;;11.24;49.20;101581.00;20839614;28;20045;-69
2021/03/28 19:38:34;;;;;;;10.23;4.10;;;;;;;11.07;49.53;101581.66;20853723;28;20041;-69
2021/03/28 19:48:36;;;;;;;8.48;3.40;;;;;;;10.96;50.59;101595.16;20857708;28;20122;-69
2021/03/28 19:58:37;;;;;;;8.85;3.50;;;;;;;10.80;51.19;101598.38;20861895;28;20091;-70
2021/03/28 20:08:40;;;;;;;10.48;5.00;;;;;;;10.64;51.84;101591.06;20849675;28;20034;-70
2021/03/28 20:18:43;;;;;;;11.48;4.80;;;;;;;10.45;52.55;101597.00;20841084;28;20529;-71
2021/03/28 20:29:06;;;;;;;10.38;3.95;;;;;;;10.27;54.44;101591.47;20849905;28;20099;-71
2021/03/28 20:39:08;;;;;;;9.82;4.72;;;;;;;9.95;55.47;101591.69;20841988;28;20045;-71
2021/03/28 20:49:20;;;;;;;14.90;5.10;;;;;;;9.80;56.62;101593.00;20837103;28;20091;-71
2021/03/28 20:59:21;;;;;;;11.27;4.70;;;;;;;9.70;56.79;101598.59;20831108;28;20099;-70
2021/03/28 21:09:24;;;;;;;9.45;3.85;;;;;;;9.44;58.25;101613.31;20842048;28;21115;-71
2021/03/28 21:19:26;;;;;;;8.15;3.10;;;;;;;9.14;58.90;101624.69;20866732;28;20099;-71
2021/03/28 21:29:29;;;;;;;10.27;3.10;;;;;;;8.91;60.78;101635.75;20862173;28;20052;-71
2021/03/28 21:39:35;;;;;;;14.73;5.45;;;;;;;8.76;61.20;101637.94;20867314;28;20033;-71
2021/03/28 21:49:39;;;;;;;10.13;4.03;;;;;;;8.66;61.79;101645.16;20862498;28;20489;-73
2021/03/28 21:59:41;;;;;;;19.17;6.10;;;;;;;8.54;61.51;101648.06;20834974;28;20049;-74
2021/03/28 22:09:42;;;;;;;15.60;6.10;;;;;;;8.44;63.04;101651.81;20812010;28;20041;-74
2021/03/28 22:19:52;;;;;;;10.07;4.57;;;;;;;8.41;63.30;101660.59;20815704;28;20099;-75
2021/03/28 22:29:58;;;;;;;18.13;7.65;;;;;;;8.37;63.05;101653.72;20816570;28;20050;-75
2021/03/28 22:40:01;;;;;;;20.73;8.13;;;;;;;8.36;62.65;101664.19;20833274;28;20094;-74
2021/03/28 22:50:04;;;;;;;13.20;4.72;;;;;;;8.40;62.10;101671.91;20820401;28;20053;-74
2021/03/28 23:00:17;;;;;;;11.07;4.00;;;;;;;8.46;61.80;101676.13;20814296;28;20137;-74
2021/03/28 23:10:25;;;;;;;9.73;2.92;;;;;;;8.50;61.48;101669.91;20833745;28;20049;-74
2021/03/28 23:20:44;;;;;;;10.88;3.50;;;;;;;8.59;61.10;101682.72;20895218;28;20068;-74
2021/03/28 23:30:46;;;;;;;9.05;3.70;;;;;;;8.58;61.51;101675.81;20895397;28;20053;-75
2021/03/28 23:40:47;;;;;;;10.50;4.90;;;;;;;8.66;60.54;101678.22;20877372;28;20057;-74
2021/03/28 23:50:54;;;;;;;12.40;3.78;;;;;;;8.71;60.08;101697.22;20827752;28;20050;-74
